Wetterstation Vordersexau
Wetterdaten: Woche 26.12.16 - 01.01.17 (KW52)
Datum Zeit Temp. A. Feuchte A. Luftdruck Regen Wind Richtung Taupunkt Windchill Windben
26.12.2016 00:00 2,7 C 86 % 1028,7 hPa 0,0 l/m 0,0 km/h SO 0,6 C 2,7 C 0,0 km/h
26.12.2016 01:00 3,5 C 86 % 1028,9 hPa 0,0 l/m 0,0 km/h SO 1,4 C 3,5 C 0,0 km/h
26.12.2016 02:00 1,8 C 86 % 1028,4 hPa 0,0 l/m 0,0 km/h SO -0,3 C 1,8 C 0,0 km/h
26.12.2016 03:00 2,6 C 86 % 1028,4 hPa 0,0 l/m 0,0 km/h SO 0,5 C 2,6 C 0,0 km/h
26.12.2016 04:00 3,2 C 85 % 1028,1 hPa 0,0 l/m 0,0 km/h SO 0,9 C 3,2 C 0,0 km/h
26.12.2016 05:00 1,9 C 85 % 1028,1 hPa 0,0 l/m 0,0 km/h SO -0,3 C 1,9 C 0,0 km/h
26.12.2016 06:00 2,4 C 85 % 1028,1 hPa 0,0 l/m 0,0 km/h S-SO 0,1 C 2,4 C 0,0 km/h
26.12.2016 07:00 4,5 C 83 % 1027,7 hPa 0,0 l/m 0,0 km/h O-SO 1,9 C 4,5 C 0,0 km/h
26.12.2016 08:00 4,7 C 84 % 1028,1 hPa 0,0 l/m 0,0 km/h S-SW 2,2 C 4,7 C 0,0 km/h
26.12.2016 09:00 5,4 C 84 % 1028,4 hPa 0,0 l/m 0,0 km/h W-SW 2,9 C 5,4 C 0,0 km/h
26.12.2016 10:00 6,4 C 84 % 1029,1 hPa 0,0 l/m 0,0 km/h W-SW 3,9 C 6,4 C 0,0 km/h
26.12.2016 11:00 7,4 C 86 % 1029,5 hPa 0,0 l/m 1,9 km/h W-SW 5,2 C 7,4 C 1,1 km/h
26.12.2016 12:00 11,4 C 79 % 1029,0 hPa 0,0 l/m 14,9 km/h S-SW 7,9 C 6,9 C 8,3 km/h
26.12.2016 13:00 10,6 C 74 % 1029,2 hPa 0,0 l/m 16,8 km/h W 6,2 C 5,2 C 9,4 km/h
26.12.2016 14:00 9,3 C 78 % 1029,4 hPa 0,0 l/m 38,2 km/h W 5,7 C -1,9 C 21,2 km/h
26.12.2016 15:00 9,3 C 79 % 1029,6 hPa 0,0 l/m 7,8 km/h W-SW 5,8 C 8,3 C 4,3 km/h
26.12.2016 16:00 9,6 C 78 % 1029,6 hPa 0,0 l/m 13,6 km/h SW 6,0 C 5,3 C 7,6 km/h
26.12.2016 17:00 8,9 C 82 % 1030,2 hPa 0,0 l/m 3,9 km/h SW 6,0 C 8,9 C 2,2 km/h
26.12.2016 18:00 8,6 C 83 % 1030,5 hPa 0,0 l/m 3,2 km/h NW 5,9 C 8,6 C 1,8 km/h
26.12.2016 19:00 8,5 C 84 % 1031,3 hPa 0,0 l/m 0,0 km/h N 6,0 C 8,5 C 0,0 km/h
26.12.2016 20:00 6,3 C 85 % 1033,0 hPa 0,0 l/m 0,0 km/h N 4,0 C 6,3 C 0,0 km/h
26.12.2016 21:00 5,8 C 86 % 1033,6 hPa 0,0 l/m 0,0 km/h N 3,6 C 5,8 C 0,0 km/h
26.12.2016 22:00 4,1 C 86 % 1034,3 hPa 0,0 l/m 0,0 km/h O-SO 2,0 C 4,1 C 0,0 km/h
26.12.2016 23:00 3,3 C 86 % 1034,4 hPa 0,0 l/m 0,0 km/h O-SO 1,2 C 3,3 C 0,0 km/h
27.12.2016 00:00 2,3 C 85 % 1034,9 hPa 0,0 l/m 0,0 km/h O-NO 0,0 C 2,3 C 0,0 km/h
27.12.2016 01:00 0,9 C 85 % 1034,8 hPa 0,0 l/m 0,0 km/h O -1,3 C 0,9 C 0,0 km/h
27.12.2016 02:00 0,6 C 85 % 1035,3 hPa 0,0 l/m 0,0 km/h O-SO -1,6 C 0,6 C 0,0 km/h
27.12.2016 03:00 0,6 C 84 % 1035,7 hPa 0,0 l/m 0,0 km/h O -1,8 C 0,6 C 0,0 km/h
27.12.2016 04:00 0,4 C 84 % 1036,4 hPa 0,0 l/m 0,0 km/h O -2,0 C 0,4 C 0,0 km/h
27.12.2016 05:00 0,1 C 84 % 1036,7 hPa 0,0 l/m 0,0 km/h O -2,3 C 0,1 C 0,0 km/h
27.12.2016 06:00 0,5 C 83 % 1037,1 hPa 0,0 l/m 0,0 km/h O -2,0 C 0,5 C 0,0 km/h
27.12.2016 07:00 -0,1 C 83 % 1037,3 hPa 0,0 l/m 0,0 km/h SO -2,6 C -0,1 C 0,0 km/h
27.12.2016 08:00 -0,9 C 83 % 1037,9 hPa 0,0 l/m 0,0 km/h SO -3,4 C -0,9 C 0,0 km/h
27.12.2016 09:00 0,2 C 80 % 1038,5 hPa 0,0 l/m 0,0 km/h SO -2,8 C 0,2 C 0,0 km/h
27.12.2016 10:00 6,9 C 86 % 1039,2 hPa 0,0 l/m 0,0 km/h SO 4,7 C 6,9 C 0,0 km/h
27.12.2016 11:00 8,1 C 80 % 1039,2 hPa 0,0 l/m 0,0 km/h SO 4,9 C 8,1 C 0,0 km/h
27.12.2016 12:00 13,2 C 67 % 1038,7 hPa 0,0 l/m 0,0 km/h S-SO 7,2 C 13,2 C 0,0 km/h
27.12.2016 13:00 11,6 C 58 % 1038,4 hPa 0,0 l/m 0,0 km/h SO 3,6 C 11,6 C 0,0 km/h
27.12.2016 14:00 12,1 C 54 % 1038,9 hPa 0,0 l/m 0,0 km/h SO 3,1 C 12,1 C 0,0 km/h
27.12.2016 15:00 13,5 C 50 % 1039,2 hPa 0,0 l/m 0,0 km/h SO 3,3 C 13,5 C 0,0 km/h
27.12.2016 16:00 11,6 C 54 % 1039,7 hPa 0,0 l/m 0,0 km/h SO 2,6 C 11,6 C 0,0 km/h
27.12.2016 17:00 2,4 C 72 % 1039,9 hPa 0,0 l/m 0,0 km/h O-SO -2,1 C 2,4 C 0,0 km/h
27.12.2016 18:00 0,3 C 79 % 1040,5 hPa 0,0 l/m 0,0 km/h O-SO -2,9 C 0,3 C 0,0 km/h
27.12.2016 19:00 -0,5 C 82 % 1040,9 hPa 0,0 l/m 0,0 km/h O-SO -3,2 C -0,5 C 0,0 km/h
27.12.2016 20:00 -0,9 C 84 % 1041,3 hPa 0,0 l/m 0,0 km/h O-SO -3,3 C -0,9 C 0,0 km/h
27.12.2016 21:00 -0,5 C 86 % 1041,3 hPa 0,0 l/m 0,0 km/h O-SO -2,5 C -0,5 C 0,0 km/h
27.12.2016 22:00 -0,7 C 86 % 1041,3 hPa 0,0 l/m 0,0 km/h O-SO -2,7 C -0,7 C 0,0 km/h
27.12.2016 23:00 -1,9 C 86 % 1041,2 hPa 0,0 l/m 0,0 km/h O-SO -3,9 C -1,9 C 0,0 km/h
28.12.2016 00:00 -2,7 C 86 % 1041,1 hPa 0,0 l/m 0,0 km/h O -4,7 C -2,7 C 0,0 km/h
28.12.2016 01:00 -3,0 C 86 % 1040,9 hPa 0,0 l/m 0,0 km/h O -5,0 C -3,0 C 0,0 km/h
28.12.2016 02:00 -3,3 C 87 % 1040,7 hPa 0,0 l/m 0,0 km/h O -5,1 C -3,3 C 0,0 km/h
28.12.2016 03:00 -4,1 C 87 % 1040,7 hPa 0,0 l/m 0,0 km/h O-NO -5,9 C -4,1 C 0,0 km/h
28.12.2016 04:00 -4,1 C 87 % 1040,8 hPa 0,0 l/m 0,0 km/h O-NO -5,9 C -4,1 C 0,0 km/h
28.12.2016 05:00 -4,4 C 87 % 1040,7 hPa 0,0 l/m 0,0 km/h O-NO -6,2 C -4,4 C 0,0 km/h
28.12.2016 06:00 -4,4 C 87 % 1040,3 hPa 0,0 l/m 0,0 km/h O -6,2 C -4,4 C 0,0 km/h
28.12.2016 07:00 -4,8 C 87 % 1040,6 hPa 0,0 l/m 0,0 km/h O -6,6 C -4,8 C 0,0 km/h
28.12.2016 08:00 -4,6 C 87 % 1041,0 hPa 0,0 l/m 0,0 km/h O -6,4 C -4,6 C 0,0 km/h
28.12.2016 09:00 -2,1 C 84 % 1040,9 hPa 0,0 l/m 0,0 km/h O -4,4 C -2,1 C 0,0 km/h
28.12.2016 10:00 5,6 C 84 % 1040,8 hPa 0,0 l/m 0,0 km/h O 3,1 C 5,6 C 0,0 km/h
28.12.2016 11:00 8,1 C 69 % 1040,9 hPa 0,0 l/m 0,0 km/h W 2,8 C 8,1 C 0,0 km/h
28.12.2016 12:00 8,1 C 67 % 1040,4 hPa 0,0 l/m 0,0 km/h W 2,3 C 8,1 C 0,0 km/h
28.12.2016 13:00 7,1 C 68 % 1039,3 hPa 0,0 l/m 0,0 km/h W 1,6 C 7,1 C 0,0 km/h
28.12.2016 14:00 8,1 C 64 % 1038,7 hPa 0,0 l/m 0,0 km/h N-NW 1,7 C 8,1 C 0,0 km/h
28.12.2016 15:00 9,6 C 60 % 1038,4 hPa 0,0 l/m 0,0 km/h NW 2,2 C 9,6 C 0,0 km/h
28.12.2016 16:00 6,9 C 65 % 1038,6 hPa 0,0 l/m 0,0 km/h NW 0,8 C 6,9 C 0,0 km/h
28.12.2016 17:00 -0,1 C 77 % 1038,5 hPa 0,0 l/m 0,0 km/h N-NW -3,6 C -0,1 C 0,0 km/h
28.12.2016 18:00 -1,8 C 83 % 1038,4 hPa 0,0 l/m 0,0 km/h N-NW -4,3 C -1,8 C 0,0 km/h
28.12.2016 19:00 -2,6 C 84 % 1038,6 hPa 0,0 l/m 0,0 km/h N-NW -4,9 C -2,6 C 0,0 km/h
28.12.2016 20:00 -3,0 C 85 % 1038,5 hPa 0,0 l/m 0,0 km/h N-NW -5,2 C -3,0 C 0,0 km/h
28.12.2016 21:00 -3,4 C 86 % 1038,1 hPa 0,0 l/m 0,0 km/h N-NW -5,4 C -3,4 C 0,0 km/h
28.12.2016 22:00 -3,6 C 86 % 1038,1 hPa 0,0 l/m 0,0 km/h N-NW -5,6 C -3,6 C 0,0 km/h
28.12.2016 23:00 -4,1 C 86 % 1037,9 hPa 0,0 l/m 0,0 km/h N-NW -6,1 C -4,1 C 0,0 km/h
29.12.2016 00:00 -4,4 C 87 % 1037,7 hPa 0,0 l/m 0,0 km/h N-NW -6,2 C -4,4 C 0,0 km/h
29.12.2016 01:00 -5,8 C 86 % 1037,3 hPa 0,0 l/m 0,0 km/h NW -7,8 C -5,8 C 0,0 km/h
29.12.2016 02:00 -4,1 C 87 % 1037,2 hPa 0,0 l/m 0,0 km/h N-NW -5,9 C -4,1 C 0,0 km/h
29.12.2016 03:00 -3,4 C 87 % 1037,1 hPa 0,0 l/m 0,0 km/h N-NW -5,2 C -3,4 C 0,0 km/h
29.12.2016 04:00 -4,4 C 87 % 1036,9 hPa 0,0 l/m 0,0 km/h N-NW -6,2 C -4,4 C 0,0 km/h
29.12.2016 05:00 -4,9 C 87 % 1036,2 hPa 0,0 l/m 0,0 km/h NW -6,7 C -4,9 C 0,0 km/h
29.12.2016 06:00 -5,3 C 87 % 1036,1 hPa 0,0 l/m 0,0 km/h NW -7,1 C -5,3 C 0,0 km/h
29.12.2016 07:00 -5,4 C 87 % 1036,0 hPa 0,0 l/m 0,0 km/h NW -7,2 C -5,4 C 0,0 km/h
29.12.2016 08:00 -5,0 C 87 % 1036,1 hPa 0,0 l/m 0,0 km/h N-NW -6,8 C -5,0 C 0,0 km/h
29.12.2016 09:00 -4,2 C 86 % 1035,9 hPa 0,0 l/m 0,0 km/h O-SO -6,2 C -4,2 C 0,0 km/h
29.12.2016 10:00 -3,3 C 86 % 1035,9 hPa 0,0 l/m 0,0 km/h O-SO -5,3 C -3,3 C 0,0 km/h
29.12.2016 11:00 -2,7 C 86 % 1036,0 hPa 0,0 l/m 0,0 km/h NO -4,7 C -2,7 C 0,0 km/h
29.12.2016 12:00 -2,2 C 86 % 1035,7 hPa 0,0 l/m 0,0 km/h N-NO -4,2 C -2,2 C 0,0 km/h
29.12.2016 13:00 -2,1 C 86 % 1035,1 hPa 0,0 l/m 0,0 km/h NO -4,1 C -2,1 C 0,0 km/h
29.12.2016 14:00 -2,1 C 86 % 1034,6 hPa 0,0 l/m 0,0 km/h N-NO -4,1 C -2,1 C 0,0 km/h
29.12.2016 15:00 -2,1 C 86 % 1034,3 hPa 0,0 l/m 0,0 km/h NO -4,1 C -2,1 C 0,0 km/h
29.12.2016 16:00 -2,4 C 86 % 1034,3 hPa 0,0 l/m 0,0 km/h N-NO -4,4 C -2,4 C 0,0 km/h
29.12.2016 17:00 -2,7 C 86 % 1034,1 hPa 0,0 l/m 0,0 km/h NO -4,7 C -2,7 C 0,0 km/h
29.12.2016 18:00 -2,8 C 86 % 1034,6 hPa 0,0 l/m 0,0 km/h N-NO -4,8 C -2,8 C 0,0 km/h
29.12.2016 19:00 -3,0 C 86 % 1034,6 hPa 0,0 l/m 0,0 km/h O-SO -5,0 C -3,0 C 0,0 km/h
29.12.2016 20:00 -3,1 C 85 % 1034,6 hPa 0,0 l/m 0,0 km/h O-SO -5,3 C -3,1 C 0,0 km/h
29.12.2016 21:00 -3,5 C 86 % 1034,7 hPa 0,0 l/m 0,0 km/h O-SO -5,5 C -3,5 C 0,0 km/h
29.12.2016 22:00 -4,2 C 85 % 1034,6 hPa 0,0 l/m 0,0 km/h O-SO -6,3 C -4,2 C 0,0 km/h
29.12.2016 23:00 -4,2 C 85 % 1035,0 hPa 0,0 l/m 0,0 km/h O-SO -6,3 C -4,2 C 0,0 km/h
30.12.2016 00:00 -5,6 C 86 % 1035,0 hPa 0,0 l/m 0,0 km/h O -7,6 C -5,6 C 0,0 km/h
30.12.2016 01:00 -5,8 C 86 % 1034,7 hPa 0,0 l/m 0,0 km/h O -7,8 C -5,8 C 0,0 km/h
30.12.2016 02:00 -5,9 C 86 % 1034,7 hPa 0,0 l/m 0,0 km/h O -7,9 C -5,9 C 0,0 km/h
30.12.2016 03:00 -5,5 C 86 % 1035,0 hPa 0,0 l/m 0,0 km/h O -7,5 C -5,5 C 0,0 km/h
30.12.2016 04:00 -5,8 C 86 % 1035,3 hPa 0,0 l/m 0,0 km/h O -7,8 C -5,8 C 0,0 km/h
30.12.2016 05:00 -6,6 C 86 % 1035,1 hPa 0,0 l/m 0,0 km/h O -8,5 C -6,6 C 0,0 km/h
30.12.2016 06:00 -7,1 C 86 % 1035,2 hPa 0,0 l/m 0,0 km/h O -9,0 C -7,1 C 0,0 km/h
30.12.2016 07:00 -7,5 C 87 % 1035,3 hPa 0,0 l/m 0,0 km/h O -9,3 C -7,5 C 0,0 km/h
30.12.2016 08:00 -8,9 C 87 % 1035,6 hPa 0,0 l/m 0,0 km/h O -10,7 C -8,9 C 0,0 km/h
30.12.2016 09:00 -7,4 C 86 % 1036,0 hPa 0,0 l/m 0,0 km/h SO -9,3 C -7,4 C 0,0 km/h
30.12.2016 10:00 -2,2 C 86 % 1036,1 hPa 0,0 l/m 0,0 km/h SO -4,2 C -2,2 C 0,0 km/h
30.12.2016 11:00 0,9 C 83 % 1036,3 hPa 0,0 l/m 0,0 km/h SO -1,7 C 0,9 C 0,0 km/h
30.12.2016 12:00 -2,1 C 84 % 1036,2 hPa 0,0 l/m 0,0 km/h SO -4,4 C -2,1 C 0,0 km/h
30.12.2016 13:00 -1,5 C 86 % 1035,0 hPa 0,0 l/m 0,0 km/h SO -3,5 C -1,5 C 0,0 km/h
30.12.2016 14:00 -1,1 C 86 % 1034,2 hPa 0,0 l/m 0,0 km/h NW -3,1 C -1,1 C 0,0 km/h
30.12.2016 15:00 -2,2 C 87 % 1034,2 hPa 0,0 l/m 0,0 km/h NW -4,1 C -2,2 C 0,0 km/h
30.12.2016 16:00 -2,7 C 86 % 1034,4 hPa 0,0 l/m 0,0 km/h NW -4,7 C -2,7 C 0,0 km/h
30.12.2016 17:00 -3,2 C 87 % 1034,4 hPa 0,0 l/m 0,0 km/h NW -5,0 C -3,2 C 0,0 km/h
30.12.2016 18:00 -3,2 C 87 % 1034,4 hPa 0,0 l/m 0,0 km/h NW -5,0 C -3,2 C 0,0 km/h
30.12.2016 19:00 -3,6 C 87 % 1034,4 hPa 0,0 l/m 0,0 km/h W-NW -5,4 C -3,6 C 0,0 km/h
30.12.2016 20:00 -3,7 C 87 % 1034,5 hPa 0,0 l/m 0,0 km/h S -5,5 C -3,7 C 0,0 km/h
30.12.2016 21:00 -3,9 C 86 % 1034,9 hPa 0,0 l/m 0,0 km/h S -5,9 C -3,9 C 0,0 km/h
30.12.2016 22:00 -4,1 C 86 % 1034,9 hPa 0,0 l/m 0,0 km/h S -6,1 C -4,1 C 0,0 km/h
30.12.2016 23:00 -4,7 C 87 % 1034,5 hPa 0,0 l/m 0,0 km/h S -6,5 C -4,7 C 0,0 km/h
31.12.2016 00:00 -5,0 C 87 % 1034,4 hPa 0,0 l/m 0,0 km/h S -6,8 C -5,0 C 0,0 km/h
31.12.2016 01:00 -5,3 C 86 % 1034,2 hPa 0,0 l/m 0,0 km/h S -7,3 C -5,3 C 0,0 km/h
31.12.2016 02:00 -5,2 C 86 % 1034,1 hPa 0,0 l/m 0,0 km/h S -7,2 C -5,2 C 0,0 km/h
31.12.2016 03:00 -5,2 C 86 % 1033,7 hPa 0,0 l/m 0,0 km/h S -7,2 C -5,2 C 0,0 km/h
31.12.2016 04:00 -5,2 C 86 % 1033,2 hPa 0,0 l/m 0,0 km/h S -7,2 C -5,2 C 0,0 km/h
31.12.2016 05:00 -5,6 C 86 % 1032,9 hPa 0,0 l/m 0,0 km/h S -7,6 C -5,6 C 0,0 km/h
31.12.2016 06:00 -6,4 C 87 % 1032,8 hPa 0,0 l/m 0,0 km/h S -8,2 C -6,4 C 0,0 km/h
31.12.2016 07:00 -7,7 C 87 % 1032,5 hPa 0,0 l/m 0,0 km/h S -9,5 C -7,7 C 0,0 km/h
31.12.2016 08:00 -8,1 C 87 % 1032,5 hPa 0,0 l/m 0,0 km/h S -9,9 C -8,1 C 0,0 km/h
31.12.2016 09:00 -6,5 C 86 % 1032,7 hPa 0,0 l/m 0,0 km/h S -8,4 C -6,5 C 0,0 km/h
31.12.2016 10:00 -5,0 C 86 % 1032,9 hPa 0,0 l/m 0,0 km/h S -7,0 C -5,0 C 0,0 km/h
31.12.2016 11:00 -3,9 C 85 % 1032,8 hPa 0,0 l/m 0,0 km/h W -6,0 C -3,9 C 0,0 km/h
31.12.2016 12:00 -3,2 C 85 % 1031,7 hPa 0,0 l/m 0,0 km/h W-NW -5,4 C -3,2 C 0,0 km/h
31.12.2016 13:00 -3,1 C 86 % 1031,2 hPa 0,0 l/m 0,0 km/h W -5,1 C -3,1 C 0,0 km/h
31.12.2016 14:00 -2,7 C 86 % 1030,6 hPa 0,0 l/m 0,0 km/h W -4,7 C -2,7 C 0,0 km/h
31.12.2016 15:00 -3,1 C 86 % 1029,8 hPa 0,0 l/m 0,0 km/h W -5,1 C -3,1 C 0,0 km/h
31.12.2016 16:00 -3,5 C 86 % 1029,7 hPa 0,0 l/m 0,0 km/h W -5,5 C -3,5 C 0,0 km/h
31.12.2016 17:00 -3,9 C 86 % 1029,5 hPa 0,0 l/m 0,0 km/h W -5,9 C -3,9 C 0,0 km/h
31.12.2016 18:00 -4,2 C 87 % 1029,3 hPa 0,0 l/m 0,0 km/h W -6,0 C -4,2 C 0,0 km/h
31.12.2016 19:00 -4,4 C 86 % 1028,7 hPa 0,0 l/m 0,0 km/h W -6,4 C -4,4 C 0,0 km/h
31.12.2016 20:00 -4,7 C 86 % 1028,4 hPa 0,0 l/m 0,0 km/h W -6,7 C -4,7 C 0,0 km/h
31.12.2016 21:00 -4,9 C 87 % 1027,9 hPa 0,0 l/m 0,0 km/h W -6,7 C -4,9 C 0,0 km/h
31.12.2016 22:00 -5,5 C 86 % 1027,2 hPa 0,0 l/m 0,0 km/h W -7,5 C -5,5 C 0,0 km/h
31.12.2016 23:00 -5,9 C 86 % 1026,8 hPa 0,0 l/m 0,0 km/h W -7,9 C -5,9 C 0,0 km/h
01.01.2017 00:00 -6,1 C 86 % 1026,5 hPa 0,0 l/m 0,0 km/h NW -8,0 C -6,1 C 0,0 km/h
01.01.2017 01:00 -5,6 C 86 % 1025,6 hPa 0,0 l/m 0,0 km/h NW -7,6 C -5,6 C 0,0 km/h
01.01.2017 02:00 -5,6 C 86 % 1025,1 hPa 0,0 l/m 0,0 km/h NW -7,6 C -5,6 C 0,0 km/h
01.01.2017 03:00 -5,5 C 86 % 1024,2 hPa 0,0 l/m 0,0 km/h NW -7,5 C -5,5 C 0,0 km/h
01.01.2017 04:00 -5,6 C 86 % 1023,6 hPa 0,0 l/m 0,0 km/h NW -7,6 C -5,6 C 0,0 km/h
01.01.2017 05:00 -5,9 C 86 % 1022,9 hPa 0,0 l/m 0,0 km/h NW -7,9 C -5,9 C 0,0 km/h
01.01.2017 06:00 -6,7 C 86 % 1022,1 hPa 0,0 l/m 0,0 km/h NW -8,6 C -6,7 C 0,0 km/h
01.01.2017 07:00 -8,1 C 87 % 1021,8 hPa 0,0 l/m 0,0 km/h NW -9,9 C -8,1 C 0,0 km/h
01.01.2017 08:00 -7,5 C 87 % 1021,5 hPa 0,0 l/m 0,0 km/h NW -9,3 C -7,5 C 0,0 km/h
01.01.2017 09:00 -6,2 C 86 % 1021,4 hPa 0,0 l/m 0,0 km/h NW -8,1 C -6,2 C 0,0 km/h
01.01.2017 10:00 -4,5 C 85 % 1020,9 hPa 0,0 l/m 0,0 km/h NW -6,6 C -4,5 C 0,0 km/h
01.01.2017 11:00 0,6 C 87 % 1020,5 hPa 0,0 l/m 0,0 km/h W-NW -1,3 C 0,6 C 0,0 km/h
01.01.2017 12:00 4,5 C 83 % 1019,5 hPa 0,0 l/m 0,0 km/h W-NW 1,9 C 4,5 C 0,0 km/h
01.01.2017 13:00 6,4 C 77 % 1018,1 hPa 0,5 l/m 0,0 km/h W-NW 2,7 C 6,4 C 0,0 km/h
01.01.2017 14:00 8,4 C 73 % 1017,1 hPa 0,0 l/m 0,0 km/h N 3,8 C 8,4 C 0,0 km/h
01.01.2017 15:00 11,4 C 67 % 1017,2 hPa 0,0 l/m 0,0 km/h N 5,5 C 11,4 C 0,0 km/h
01.01.2017 16:00 9,4 C 64 % 1017,1 hPa 0,0 l/m 0,0 km/h N 2,9 C 9,4 C 0,0 km/h
01.01.2017 17:00 0,9 C 80 % 1017,4 hPa 0,0 l/m 0,0 km/h N -2,2 C 0,9 C 0,0 km/h
01.01.2017 18:00 0,3 C 84 % 1018,0 hPa 0,0 l/m 0,0 km/h N -2,1 C 0,3 C 0,0 km/h
01.01.2017 19:00 -1,6 C 86 % 1018,0 hPa 0,0 l/m 0,0 km/h N -3,6 C -1,6 C 0,0 km/h
01.01.2017 20:00 -2,4 C 87 % 1018,4 hPa 0,0 l/m 0,0 km/h N -4,3 C -2,4 C 0,0 km/h
01.01.2017 21:00 -2,7 C 86 % 1018,8 hPa 0,0 l/m 0,0 km/h N -4,7 C -2,7 C 0,0 km/h
01.01.2017 22:00 -2,9 C 86 % 1018,9 hPa 0,0 l/m 0,0 km/h W-SW -4,9 C -2,9 C 0,0 km/h
01.01.2017 23:00 -0,8 C 86 % 1019,0 hPa 0,0 l/m 0,0 km/h W -2,8 C -0,8 C 0,0 km/h
Min-Datum _ 30.12.16 27.12.16 01.01.17 - 26.12.16 - 30.12.16 30.12.16 26.12.16
_ Min-Zeit 08:10 15:10 14:10 - 00:10 - 08:10 08:10 00:10
Minimum _ -8,9 C 50 % 1017,1 hPa - 0,0 km/h - -10,7 C -8,9 C 0,0 km/h
Max-Datum _ 27.12.16 28.12.16 27.12.16 01.01.17 26.12.16 - 26.12.16 27.12.16 26.12.16
_ Max-Zeit 15:10 02:10 20:10 13:10 14:10 - 12:10 15:10 14:10
Maximum _ 13,5 C 87 % 1041,3 hPa 0,5 l/m 38,2 km/h
W
- 7,9 C 13,5 C 21,2 km/h
W
Durchschnitt _ -0,7 C 83 % 1032,9 hPa #0,5 l/m 0,6 km/h NW -3,3 C -0,9 C 0,3 km/h
www.sexauwetter.de